CA-0160 weather

CLOSED Highwood Livestock Auction Airport
High River, Alberta, Canada

Public forecast

Using degrees Celsius for public forecast. Weather courtesy of forecast.io.

METAR (pilot weather report)

Closest report is Calgary International Airport, 28.6 nm (52.9 km) NNW. Retrieved 2019/06/19 16:40 UTC (0 seconds ago):

CYYC 191640Z 33022G29KT 15SM BKN012 BKN025 BKN055 BKN070 07/05 A2974 RMK SF5SC1SC1AC1 AC TR SLP085 DENSITY ALT 3800FT

TAF (pilot weather forecast)

Closest forecast is Calgary International Airport, 28.6 nm (52.9 km) NNW. Retrieved 2019/06/19 15:42 UTC (38 minutes ago):

TAF CYYC 191438Z 1915/2012 36015KT P6SM SCT012 BKN040 BKN120 TEMPO 1915/1920 5SM -SHRA BR BKN012 OVC040 BECMG 1915/1917 34020G30KT FM192000 34020G30KT P6SM BKN030 TEMPO 1920/2004 P6SM -SHRA SCT020 OVC030 PROB30 1922/2004 VRB15G25KT 4SM TSRA BKN030CB FM200400 34012KT P6SM BKN030 TEMPO 2004/2012 P6SM -RA BECMG 2004/2006 30010KT RMK NXT FCST BY 191800Z